Time;durP1;ratioP1;P1;durP2;ratioP2;P2;SDS_P1;SDS_P2;PMS_P1;PMS_P2;Temp;Humidity;BMP_temperature;BMP_pressure;BME280_temperature;BME280_humidity;BME280_pressure;Samples;Min_cycle;Max_cycle;Signal;HPM_P1;HPM_P2
2023/06/01 00:01:46;;;;;;;7.22;2.60;;;;;;;;;;4955942;29;20067;-80
2023/06/01 00:04:13;;;;;;;2.97;2.20;;;;;;;;;;4960531;29;20082;-81
2023/06/01 00:06:38;;;;;;;4.45;1.98;;;;;;;;;;4944832;29;20035;-82
2023/06/01 00:09:04;;;;;;;4.22;2.05;;;;;;;;;;4924585;29;20031;-81
2023/06/01 00:11:29;;;;;;;7.65;2.53;;;;;;;;;;4952292;29;20028;-82
2023/06/01 00:13:54;;;;;;;3.95;2.13;;;;;;;;;;4938456;29;20035;-81
2023/06/01 00:16:20;;;;;;;3.15;2.00;;;;;;;;;;4953185;29;20034;-81
2023/06/01 00:18:45;;;;;;;5.28;2.45;;;;;;;;;;4959625;29;20035;-81
2023/06/01 00:21:11;;;;;;;3.00;2.35;;;;;;;;;;4948009;29;20023;-81
2023/06/01 00:23:38;;;;;;;7.82;2.55;;;;;;;;;;4959019;29;20007;-81
2023/06/01 00:26:04;;;;;;;3.25;2.42;;;;;;;;;;4957760;29;20023;-81
2023/06/01 00:28:29;;;;;;;5.57;2.35;;;;;;;;;;4941185;29;20398;-81
2023/06/01 00:30:55;;;;;;;8.05;2.42;;;;;;;;;;4936635;29;20019;-80
2023/06/01 00:33:20;;;;;;;4.68;2.60;;;;;;;;;;4926943;29;20039;-82
2023/06/01 00:35:46;;;;;;;8.82;2.70;;;;;;;;;;4958192;29;20032;-80
2023/06/01 00:38:11;;;;;;;4.85;2.10;;;;;;;;;;4929521;29;20042;-81
2023/06/01 00:40:37;;;;;;;4.72;2.33;;;;;;;;;;4946643;29;20035;-80
2023/06/01 00:43:02;;;;;;;5.43;2.45;;;;;;;;;;4952867;29;20061;-81
2023/06/01 00:45:27;;;;;;;7.03;2.35;;;;;;;;;;4953907;29;20126;-80
2023/06/01 00:47:53;;;;;;;5.65;2.33;;;;;;;;;;4955817;29;20615;-81
2023/06/01 00:50:19;;;;;;;4.80;1.95;;;;;;;;;;4969249;28;20483;-82
2023/06/01 00:52:45;;;;;;;6.28;2.20;;;;;;;;;;4932848;29;20062;-80
2023/06/01 00:55:10;;;;;;;3.90;2.30;;;;;;;;;;4928001;29;20043;-82
2023/06/01 00:57:38;;;;;;;6.40;2.40;;;;;;;;;;4946510;29;20114;-81
2023/06/01 01:00:10;;;;;;;7.20;2.42;;;;;;;;;;4956037;29;20019;-81
2023/06/01 01:02:39;;;;;;;;;;;;;;;;;;4959629;29;20055;-82
2023/06/01 01:05:09;;;;;;;4.43;3.00;;;;;;;;;;4950051;29;19911;-84
2023/06/01 01:07:43;;;;;;;4.85;2.33;;;;;;;;;;4948636;29;20027;-83
2023/06/01 01:10:46;;;;;;;7.72;2.67;;;;;;;;;;4944818;29;20527;-84
2023/06/01 01:13:15;;;;;;;5.40;2.35;;;;;;;;;;4954307;28;20107;-84
2023/06/01 01:15:50;;;;;;;4.40;2.38;;;;;;;;;;4944645;29;20110;-83
2023/06/01 01:18:19;;;;;;;4.30;2.15;;;;;;;;;;4947964;29;20034;-82
2023/06/01 01:20:51;;;;;;;6.00;2.30;;;;;;;;;;4950025;29;20027;-84
2023/06/01 01:23:47;;;;;;;6.25;2.10;;;;;;;;;;4957825;29;20024;-84
2023/06/01 01:26:31;;;;;;;3.58;2.10;;;;;;;;;;4925376;28;20099;-84
2023/06/01 01:28:59;;;;;;;3.80;1.70;;;;;;;;;;4968623;28;20568;-84
2023/06/01 01:31:26;;;;;;;3.97;2.05;;;;;;;;;;4929906;29;20042;-84
2023/06/01 01:33:55;;;;;;;4.63;2.22;;;;;;;;;;4955275;29;20031;-84
2023/06/01 01:36:22;;;;;;;3.47;1.90;;;;;;;;;;4941142;29;20019;-83
2023/06/01 01:38:47;;;;;;;3.60;2.00;;;;;;;;;;4927427;29;20526;-84
2023/06/01 01:41:13;;;;;;;3.97;2.15;;;;;;;;;;4949635;29;20100;-84
2023/06/01 01:43:39;;;;;;;5.18;2.28;;;;;;;;;;4944782;29;20504;-83
2023/06/01 01:46:25;;;;;;;4.95;2.20;;;;;;;;;;4945405;29;20363;-82
2023/06/01 01:49:14;;;;;;;7.93;2.55;;;;;;;;;;4946841;29;20510;-83
2023/06/01 01:51:57;;;;;;;5.82;2.15;;;;;;;;;;4946315;29;20079;-84
2023/06/01 01:54:24;;;;;;;6.53;2.33;;;;;;;;;;4958618;28;20047;-77
2023/06/01 01:56:53;;;;;;;5.57;2.17;;;;;;;;;;4944782;29;20031;-83
2023/06/01 01:59:18;;;;;;;5.00;2.47;;;;;;;;;;4943895;29;20398;-83
2023/06/01 02:01:44;;;;;;;4.90;2.20;;;;;;;;;;4935808;29;20031;-84
2023/06/01 02:04:10;;;;;;;3.88;1.92;;;;;;;;;;4950944;29;20031;-84
2023/06/01 02:06:36;;;;;;;4.97;2.28;;;;;;;;;;4946451;29;20019;-82
2023/06/01 02:09:06;;;;;;;10.38;2.40;;;;;;;;;;4944671;29;20055;-83
2023/06/01 02:11:31;;;;;;;8.82;2.17;;;;;;;;;;4951018;29;20541;-82
2023/06/01 02:13:57;;;;;;;6.07;2.55;;;;;;;;;;4956259;29;20035;-84
2023/06/01 02:16:22;;;;;;;3.58;2.20;;;;;;;;;;4944520;29;20414;-83
2023/06/01 02:18:47;;;;;;;4.70;2.15;;;;;;;;;;4946700;29;20038;-83
2023/06/01 02:21:13;;;;;;;4.10;2.25;;;;;;;;;;4948112;29;20443;-83
2023/06/01 02:23:42;;;;;;;3.13;1.98;;;;;;;;;;4954844;29;20046;-83
2023/06/01 02:26:09;;;;;;;2.90;2.20;;;;;;;;;;4939858;29;20035;-83
2023/06/01 02:28:36;;;;;;;3.50;2.10;;;;;;;;;;4942916;29;20028;-85
2023/06/01 02:31:02;;;;;;;5.43;2.45;;;;;;;;;;4951643;29;20035;-84
2023/06/01 02:33:27;;;;;;;6.45;2.10;;;;;;;;;;4957926;29;20085;-84
2023/06/01 02:35:52;;;;;;;5.93;2.38;;;;;;;;;;4941148;29;20059;-82
2023/06/01 02:38:18;;;;;;;6.97;2.58;;;;;;;;;;4940465;29;20035;-83
2023/06/01 02:40:43;;;;;;;6.30;2.22;;;;;;;;;;4930157;29;20091;-83
2023/06/01 02:43:08;;;;;;;9.88;2.60;;;;;;;;;;4949051;29;20107;-84
2023/06/01 02:45:34;;;;;;;6.43;2.65;;;;;;;;;;4941841;29;20050;-82
2023/06/01 02:47:59;;;;;;;3.42;2.00;;;;;;;;;;4930022;29;20566;-83
2023/06/01 02:50:26;;;;;;;8.30;2.40;;;;;;;;;;4929624;29;20391;-84
2023/06/01 02:52:51;;;;;;;5.57;2.42;;;;;;;;;;4949331;29;20090;-83
2023/06/01 02:55:17;;;;;;;5.30;2.63;;;;;;;;;;4934528;29;20055;-84
2023/06/01 02:57:42;;;;;;;3.78;2.38;;;;;;;;;;4935942;29;20028;-82
2023/06/01 03:00:15;;;;;;;5.28;2.38;;;;;;;;;;4941607;29;20047;-85
2023/06/01 03:02:42;;;;;;;4.28;2.25;;;;;;;;;;4952086;29;20035;-83
2023/06/01 03:05:08;;;;;;;6.07;2.28;;;;;;;;;;4942635;29;20443;-85
2023/06/01 03:07:34;;;;;;;4.65;2.28;;;;;;;;;;4941061;29;20479;-84
2023/06/01 03:09:59;;;;;;;7.47;2.28;;;;;;;;;;4941164;29;20081;-84
2023/06/01 03:12:25;;;;;;;4.28;2.28;;;;;;;;;;4944719;29;20107;-85
2023/06/01 03:14:50;;;;;;;7.28;2.25;;;;;;;;;;4939663;29;20024;-84
2023/06/01 03:17:16;;;;;;;4.85;2.20;;;;;;;;;;4942037;29;20020;-82
2023/06/01 03:19:41;;;;;;;5.30;2.28;;;;;;;;;;4929907;29;20043;-84
2023/06/01 03:22:06;;;;;;;6.93;2.53;;;;;;;;;;4948333;29;20019;-84
2023/06/01 03:24:32;;;;;;;6.15;2.17;;;;;;;;;;4938129;29;20023;-83
2023/06/01 03:26:57;;;;;;;6.28;2.53;;;;;;;;;;4946156;29;20034;-84
2023/06/01 03:29:23;;;;;;;6.70;2.45;;;;;;;;;;4926195;29;20052;-82
2023/06/01 03:31:48;;;;;;;7.43;2.50;;;;;;;;;;4947996;29;20047;-83
2023/06/01 03:34:14;;;;;;;5.32;2.40;;;;;;;;;;4952103;29;20023;-81
2023/06/01 03:36:39;;;;;;;3.72;2.70;;;;;;;;;;4954705;29;20023;-84
2023/06/01 03:39:08;;;;;;;5.13;2.17;;;;;;;;;;4944690;29;20019;-81
2023/06/01 03:41:35;;;;;;;4.30;2.53;;;;;;;;;;4940889;29;20074;-83
2023/06/01 03:44:01;;;;;;;3.78;2.17;;;;;;;;;;4939381;29;20123;-83
2023/06/01 03:46:26;;;;;;;4.72;2.30;;;;;;;;;;4946420;29;20023;-84
2023/06/01 03:48:52;;;;;;;4.90;2.42;;;;;;;;;;4939761;29;20028;-84
2023/06/01 03:51:17;;;;;;;2.90;2.22;;;;;;;;;;4937948;29;20015;-84
2023/06/01 03:53:43;;;;;;;9.73;2.47;;;;;;;;;;4952490;29;20030;-83
2023/06/01 03:56:08;;;;;;;6.22;2.13;;;;;;;;;;4940020;29;20042;-81
2023/06/01 03:58:33;;;;;;;3.75;2.22;;;;;;;;;;4938564;29;20103;-84
2023/06/01 04:01:00;;;;;;;11.00;2.72;;;;;;;;;;4951209;29;20035;-80
2023/06/01 04:03:26;;;;;;;7.45;1.95;;;;;;;;;;4943639;29;20043;-80
2023/06/01 04:05:58;;;;;;;6.63;2.30;;;;;;;;;;4963990;29;20012;-80
2023/06/01 04:08:24;;;;;;;2.70;2.17;;;;;;;;;;4945321;29;20023;-83
2023/06/01 04:10:49;;;;;;;10.18;2.63;;;;;;;;;;4934060;29;20069;-81
2023/06/01 04:13:14;;;;;;;4.75;2.30;;;;;;;;;;4943831;28;20094;-84
2023/06/01 04:15:40;;;;;;;7.57;2.33;;;;;;;;;;4947204;29;20091;-83
2023/06/01 04:18:05;;;;;;;4.65;2.35;;;;;;;;;;4948116;29;21001;-82
2023/06/01 04:20:32;;;;;;;8.48;2.50;;;;;;;;;;4939446;29;20024;-84
2023/06/01 04:22:57;;;;;;;5.32;2.20;;;;;;;;;;4937158;29;20086;-82
2023/06/01 04:25:23;;;;;;;6.85;2.33;;;;;;;;;;4941410;29;20035;-84
2023/06/01 04:27:51;;;;;;;4.45;2.47;;;;;;;;;;4927620;29;20028;-83
2023/06/01 04:30:17;;;;;;;4.68;1.85;;;;;;;;;;4930564;29;20363;-82
2023/06/01 04:32:44;;;;;;;6.88;2.33;;;;;;;;;;4940578;29;20487;-82
2023/06/01 04:35:10;;;;;;;4.20;2.20;;;;;;;;;;4942083;29;20032;-83
2023/06/01 04:37:40;;;;;;;6.88;2.33;;;;;;;;;;4940523;29;20020;-83
2023/06/01 04:40:08;;;;;;;3.40;2.10;;;;;;;;;;4939770;29;20483;-82
2023/06/01 04:42:38;;;;;;;3.95;2.30;;;;;;;;;;4954480;29;20030;-84
2023/06/01 04:45:07;;;;;;;3.45;2.28;;;;;;;;;;4940536;29;20028;-83
2023/06/01 04:47:37;;;;;;;3.08;2.15;;;;;;;;;;4942014;29;20711;-84
2023/06/01 04:50:08;;;;;;;7.00;2.72;;;;;;;;;;4942942;29;20036;-81
2023/06/01 04:52:33;;;;;;;5.05;2.63;;;;;;;;;;4950885;29;20027;-83
2023/06/01 04:54:59;;;;;;;5.30;2.20;;;;;;;;;;4937553;29;20038;-81
2023/06/01 04:57:24;;;;;;;6.82;3.10;;;;;;;;;;4940086;29;20024;-84
2023/06/01 04:59:51;;;;;;;9.70;2.63;;;;;;;;;;4933518;29;20136;-84
2023/06/01 05:02:17;;;;;;;4.55;2.65;;;;;;;;;;4937285;29;20342;-83
2023/06/01 05:04:42;;;;;;;7.78;2.67;;;;;;;;;;4931110;29;20280;-83
2023/06/01 05:07:07;;;;;;;5.10;2.38;;;;;;;;;;4950359;29;20031;-84
2023/06/01 05:09:33;;;;;;;14.35;3.22;;;;;;;;;;4952604;29;20026;-84
2023/06/01 05:11:58;;;;;;;5.38;2.20;;;;;;;;;;4952713;29;20023;-84
2023/06/01 05:14:24;;;;;;;4.18;2.28;;;;;;;;;;4960218;29;20449;-84
2023/06/01 05:16:49;;;;;;;4.72;2.67;;;;;;;;;;4935438;29;20518;-84
2023/06/01 05:19:14;;;;;;;7.75;3.58;;;;;;;;;;4957097;29;20019;-79
2023/06/01 05:21:42;;;;;;;9.23;2.72;;;;;;;;;;4959748;29;20087;-80
2023/06/01 05:24:08;;;;;;;6.18;2.10;;;;;;;;;;4966843;29;20016;-83
2023/06/01 05:26:33;;;;;;;4.15;2.30;;;;;;;;;;4930048;29;20122;-83
2023/06/01 05:28:58;;;;;;;5.15;2.35;;;;;;;;;;4950340;29;20071;-83
2023/06/01 05:31:24;;;;;;;3.33;2.25;;;;;;;;;;4951955;29;20032;-82
2023/06/01 05:33:51;;;;;;;4.22;2.55;;;;;;;;;;4944576;29;20087;-83
2023/06/01 05:36:16;;;;;;;4.18;2.33;;;;;;;;;;4942583;29;20557;-81
2023/06/01 05:38:41;;;;;;;6.68;2.33;;;;;;;;;;4938851;29;20087;-82
2023/06/01 05:41:06;;;;;;;7.05;2.65;;;;;;;;;;4941336;29;20032;-83
2023/06/01 05:43:35;;;;;;;4.63;2.33;;;;;;;;;;4951794;29;20028;-84
2023/06/01 05:46:00;;;;;;;7.35;2.85;;;;;;;;;;4942572;29;20030;-83
2023/06/01 05:48:26;;;;;;;8.43;2.50;;;;;;;;;;4943710;29;20118;-82
2023/06/01 05:50:51;;;;;;;4.97;2.60;;;;;;;;;;4952932;29;20051;-81
2023/06/01 05:53:16;;;;;;;5.13;2.65;;;;;;;;;;4948086;29;20043;-81
2023/06/01 05:55:41;;;;;;;5.90;2.58;;;;;;;;;;4944105;29;20036;-83
2023/06/01 05:58:07;;;;;;;7.10;2.33;;;;;;;;;;4939565;29;20023;-81
2023/06/01 06:00:35;;;;;;;5.38;2.92;;;;;;;;;;4945619;29;20028;-83
2023/06/01 06:03:00;;;;;;;6.40;2.60;;;;;;;;;;4947407;29;20027;-83
2023/06/01 06:05:26;;;;;;;5.53;2.95;;;;;;;;;;4960659;29;20118;-82
2023/06/01 06:07:51;;;;;;;7.57;2.58;;;;;;;;;;4947854;29;20032;-83
2023/06/01 06:10:16;;;;;;;5.57;2.60;;;;;;;;;;4954541;29;20107;-83
2023/06/01 06:12:42;;;;;;;6.47;2.42;;;;;;;;;;4941941;29;20028;-83
2023/06/01 06:15:08;;;;;;;7.53;2.75;;;;;;;;;;4949502;29;20590;-84
2023/06/01 06:17:33;;;;;;;6.60;2.83;;;;;;;;;;4958367;28;20034;-83
2023/06/01 06:19:59;;;;;;;10.65;2.50;;;;;;;;;;4948950;29;20486;-83
2023/06/01 06:22:25;;;;;;;6.20;2.40;;;;;;;;;;4956566;29;20470;-82
2023/06/01 06:24:50;;;;;;;7.43;2.33;;;;;;;;;;4948569;29;20047;-83
2023/06/01 06:27:15;;;;;;;5.55;2.72;;;;;;;;;;4943122;29;20055;-84
2023/06/01 06:29:41;;;;;;;7.05;3.22;;;;;;;;;;4943158;29;20035;-84
2023/06/01 06:32:06;;;;;;;8.88;2.60;;;;;;;;;;4945134;29;20250;-84
2023/06/01 06:34:35;;;;;;;5.05;2.20;;;;;;;;;;4939285;29;20110;-82
2023/06/01 06:37:03;;;;;;;5.88;2.35;;;;;;;;;;4942139;29;20027;-85
2023/06/01 06:39:28;;;;;;;6.75;2.97;;;;;;;;;;4939422;29;20044;-84
2023/06/01 06:41:53;;;;;;;4.00;2.38;;;;;;;;;;4940369;29;20036;-83
2023/06/01 06:44:19;;;;;;;9.15;2.47;;;;;;;;;;4947322;29;20024;-83
2023/06/01 06:46:44;;;;;;;3.85;2.20;;;;;;;;;;4939319;29;20401;-83
2023/06/01 06:49:10;;;;;;;9.38;3.75;;;;;;;;;;4942257;29;20059;-81
2023/06/01 06:51:37;;;;;;;6.15;2.30;;;;;;;;;;4947547;29;20033;-85
2023/06/01 06:54:05;;;;;;;4.32;2.25;;;;;;;;;;4954331;29;20036;-82
2023/06/01 06:56:30;;;;;;;6.18;2.20;;;;;;;;;;4944147;29;20111;-85
2023/06/01 06:58:56;;;;;;;8.13;2.10;;;;;;;;;;4959023;29;20058;-83
2023/06/01 07:01:21;;;;;;;6.05;2.40;;;;;;;;;;4945844;29;20026;-81
2023/06/01 07:03:47;;;;;;;3.13;2.20;;;;;;;;;;4929742;29;20031;-83
2023/06/01 07:06:12;;;;;;;6.55;2.28;;;;;;;;;;4947269;29;20019;-84
2023/06/01 07:08:38;;;;;;;4.78;2.50;;;;;;;;;;4940099;29;20087;-83
2023/06/01 07:11:04;;;;;;;6.43;2.38;;;;;;;;;;4936203;29;20024;-84
2023/06/01 07:13:30;;;;;;;5.20;2.15;;;;;;;;;;4948960;28;20055;-83
2023/06/01 07:15:55;;;;;;;4.68;2.50;;;;;;;;;;4941814;29;20030;-82
2023/06/01 07:18:21;;;;;;;7.30;2.58;;;;;;;;;;4947479;29;20020;-82
2023/06/01 07:20:46;;;;;;;6.13;2.95;;;;;;;;;;4940993;29;20067;-82
2023/06/01 07:23:15;;;;;;;10.38;2.72;;;;;;;;;;4949155;28;20068;-83
2023/06/01 07:25:41;;;;;;;7.25;2.38;;;;;;;;;;4946664;29;20032;-82
2023/06/01 07:28:08;;;;;;;7.28;2.70;;;;;;;;;;4943439;29;20160;-83
2023/06/01 07:30:34;;;;;;;4.40;2.30;;;;;;;;;;4960064;29;20018;-83
2023/06/01 07:33:01;;;;;;;5.88;2.22;;;;;;;;;;4954851;28;20348;-84
2023/06/01 07:35:27;;;;;;;5.68;2.20;;;;;;;;;;4943300;29;20023;-84
2023/06/01 07:37:52;;;;;;;6.00;2.55;;;;;;;;;;4958977;29;20062;-82
2023/06/01 07:40:17;;;;;;;5.20;2.38;;;;;;;;;;4932599;29;20082;-83
2023/06/01 07:42:43;;;;;;;5.95;2.80;;;;;;;;;;4950689;29;20151;-84
2023/06/01 07:45:09;;;;;;;3.70;2.50;;;;;;;;;;4951965;29;20085;-84
2023/06/01 07:47:34;;;;;;;10.63;2.42;;;;;;;;;;4955620;29;20023;-82
2023/06/01 07:50:00;;;;;;;6.93;2.53;;;;;;;;;;4952402;29;20042;-82
2023/06/01 07:52:25;;;;;;;5.68;2.85;;;;;;;;;;4941578;29;20031;-84
2023/06/01 07:54:51;;;;;;;7.18;2.60;;;;;;;;;;4941645;29;20028;-84
2023/06/01 07:57:17;;;;;;;8.52;2.83;;;;;;;;;;4942804;29;20035;-83
2023/06/01 07:59:42;;;;;;;5.47;2.28;;;;;;;;;;4944111;29;20059;-80
2023/06/01 08:08:27;;;;;;;6.50;2.50;;;;;;;;;;5068904;23;20052;-82
2023/06/01 08:10:52;;;;;;;11.57;3.10;;;;;;;;;;4912772;29;20079;-81
2023/06/01 08:13:21;;;;;;;4.63;2.88;;;;;;;;;;4891592;29;20028;-83
2023/06/01 08:15:50;;;;;;;7.22;2.35;;;;;;;;;;4912537;29;20033;-81
2023/06/01 08:18:15;;;;;;;6.68;2.67;;;;;;;;;;4895242;29;20036;-82
2023/06/01 08:20:41;;;;;;;9.18;2.65;;;;;;;;;;4917379;29;20032;-81
2023/06/01 08:23:07;;;;;;;5.60;3.03;;;;;;;;;;4912078;29;20028;-83
2023/06/01 08:25:32;;;;;;;5.88;2.67;;;;;;;;;;4906665;29;20588;-83
2023/06/01 08:27:58;;;;;;;15.18;3.75;;;;;;;;;;4915861;29;20043;-83
2023/06/01 08:30:25;;;;;;;9.18;3.45;;;;;;;;;;4919006;29;20237;-83
2023/06/01 08:32:50;;;;;;;12.27;3.08;;;;;;;;;;4919427;29;20037;-82
2023/06/01 08:35:16;;;;;;;9.30;3.05;;;;;;;;;;4920128;29;20028;-82
2023/06/01 08:37:41;;;;;;;5.68;3.08;;;;;;;;;;4919982;29;20045;-82
2023/06/01 08:40:09;;;;;;;8.55;3.10;;;;;;;;;;4915184;29;20036;-82
2023/06/01 08:42:41;;;;;;;5.32;2.97;;;;;;;;;;4925431;29;20027;-82
2023/06/01 08:45:07;;;;;;;;;;;;;;;;;;4911025;29;20028;-81
2023/06/01 08:47:32;;;;;;;6.00;2.80;;;;;;;;;;4920339;29;19963;-82
2023/06/01 08:49:58;;;;;;;6.35;3.20;;;;;;;;;;4911009;29;20052;-82
2023/06/01 08:52:28;;;;;;;7.20;2.80;;;;;;;;;;4913178;29;20020;-82
2023/06/01 08:54:54;;;;;;;6.30;2.58;;;;;;;;;;4913534;29;20036;-82
2023/06/01 08:57:20;;;;;;;6.78;2.75;;;;;;;;;;4920769;29;20024;-83
2023/06/01 08:59:46;;;;;;;4.85;2.50;;;;;;;;;;4913768;29;20039;-82
2023/06/01 09:02:11;;;;;;;5.50;2.85;;;;;;;;;;4911137;29;20479;-83
2023/06/01 09:04:44;;;;;;;8.63;3.42;;;;;;;;;;4917653;29;20034;-82
2023/06/01 09:07:10;;;;;;;6.43;2.63;;;;;;;;;;4908914;29;20039;-82
2023/06/01 09:09:36;;;;;;;6.38;3.10;;;;;;;;;;4912281;29;20108;-83
2023/06/01 09:12:21;;;;;;;4.63;3.00;;;;;;;;;;4912954;29;20025;-82
2023/06/01 09:14:47;;;;;;;6.00;2.85;;;;;;;;;;4916703;29;20028;-82
2023/06/01 09:17:21;;;;;;;4.82;2.60;;;;;;;;;;4913525;29;20039;-82
2023/06/01 09:19:47;;;;;;;7.60;3.00;;;;;;;;;;4897909;29;20092;-82
2023/06/01 09:22:13;;;;;;;6.47;2.95;;;;;;;;;;4914218;29;20076;-82
2023/06/01 09:24:40;;;;;;;5.50;2.47;;;;;;;;;;4911296;29;20032;-83
2023/06/01 09:27:07;;;;;;;6.20;2.90;;;;;;;;;;4911386;29;20033;-83
2023/06/01 09:29:32;;;;;;;6.10;2.80;;;;;;;;;;4906362;29;20021;-84
2023/06/01 09:31:59;;;;;;;4.35;2.92;;;;;;;;;;4912040;29;20025;-83
2023/06/01 09:34:25;;;;;;;7.25;3.40;;;;;;;;;;4913129;29;20024;-82
2023/06/01 09:36:53;;;;;;;5.65;2.75;;;;;;;;;;4900730;29;20059;-82
2023/06/01 09:39:20;;;;;;;8.00;3.22;;;;;;;;;;4907297;29;20036;-83
2023/06/01 09:41:58;;;;;;;11.30;3.63;;;;;;;;;;4909494;29;20515;-81
2023/06/01 09:44:31;;;;;;;6.30;2.90;;;;;;;;;;4908838;29;20064;-83
2023/06/01 09:46:58;;;;;;;7.93;3.30;;;;;;;;;;4908972;29;20032;-83
2023/06/01 09:49:38;;;;;;;8.25;3.00;;;;;;;;;;4916617;29;20056;-82
2023/06/01 09:52:03;;;;;;;7.57;2.87;;;;;;;;;;4918418;29;20020;-82
2023/06/01 09:54:33;;;;;;;8.67;3.57;;;;;;;;;;4908087;29;20119;-82
2023/06/01 09:57:00;;;;;;;6.05;3.25;;;;;;;;;;4907937;29;20331;-83
2023/06/01 09:59:28;;;;;;;4.53;2.97;;;;;;;;;;4907118;29;20036;-83
2023/06/01 10:01:55;;;;;;;6.43;3.30;;;;;;;;;;4905722;29;20024;-83
2023/06/01 10:04:23;;;;;;;5.28;3.05;;;;;;;;;;4909578;29;20088;-83
2023/06/01 10:06:51;;;;;;;5.45;3.15;;;;;;;;;;4896847;29;20029;-80
2023/06/01 10:09:19;;;;;;;11.52;2.95;;;;;;;;;;4890456;29;20052;-77
2023/06/01 10:11:45;;;;;;;3.83;2.78;;;;;;;;;;4895707;29;20084;-77
2023/06/01 10:14:11;;;;;;;5.18;3.05;;;;;;;;;;4904294;29;20039;-77
2023/06/01 10:16:36;;;;;;;4.50;3.15;;;;;;;;;;4870794;29;20032;-77
2023/06/01 10:19:02;;;;;;;8.55;2.85;;;;;;;;;;4903497;29;20075;-76
2023/06/01 10:21:29;;;;;;;6.03;3.00;;;;;;;;;;4913570;29;20032;-77
2023/06/01 10:23:54;;;;;;;3.85;2.70;;;;;;;;;;4916019;29;20073;-79
2023/06/01 10:26:21;;;;;;;5.15;3.03;;;;;;;;;;4893680;29;20445;-82
2023/06/01 10:28:48;;;;;;;9.98;3.22;;;;;;;;;;4896127;29;20349;-83
2023/06/01 10:31:35;;;;;;;6.45;3.20;;;;;;;;;;4887770;29;20115;-83
2023/06/01 10:34:01;;;;;;;5.32;3.50;;;;;;;;;;4893179;29;20124;-85
2023/06/01 10:36:51;;;;;;;4.03;2.92;;;;;;;;;;4898406;29;20029;-85
2023/06/01 10:39:27;;;;;;;9.05;3.28;;;;;;;;;;4902865;29;20084;-84
2023/06/01 10:41:55;;;;;;;8.57;3.30;;;;;;;;;;4888943;29;20031;-84
2023/06/01 10:44:39;;;;;;;5.57;3.13;;;;;;;;;;4890690;29;20055;-84
2023/06/01 10:47:25;;;;;;;4.45;3.13;;;;;;;;;;4891594;29;20044;-82
2023/06/01 10:49:50;;;;;;;5.53;3.17;;;;;;;;;;4873103;29;20044;-84
2023/06/01 10:52:35;;;;;;;7.32;3.10;;;;;;;;;;4908624;29;20035;-84
2023/06/01 10:55:07;;;;;;;4.68;2.97;;;;;;;;;;4896982;29;20032;-83
2023/06/01 10:57:32;;;;;;;;;;;;;;;;;;4899776;29;20072;-84
2023/06/01 11:00:26;;;;;;;5.82;3.30;;;;;;;;;;4905340;29;20346;-84
2023/06/01 11:03:05;;;;;;;4.60;3.05;;;;;;;;;;4890525;29;20407;-83
2023/06/01 11:05:46;;;;;;;5.10;3.20;;;;;;;;;;4909168;29;20032;-84
2023/06/01 11:08:17;;;;;;;5.03;2.67;;;;;;;;;;4913590;29;20032;-85
2023/06/01 11:10:59;;;;;;;;;;;;;;;;;;4893797;29;20038;-84
2023/06/01 11:13:29;;;;;;;5.70;3.00;;;;;;;;;;4898060;29;20326;-86
2023/06/01 11:16:03;;;;;;;7.70;2.83;;;;;;;;;;4904096;29;20060;-86
2023/06/01 11:18:42;;;;;;;4.38;2.83;;;;;;;;;;4895702;29;20447;-84
2023/06/01 11:21:15;;;;;;;5.50;3.40;;;;;;;;;;4923669;29;20017;-82
2023/06/01 11:23:40;;;;;;;5.82;3.28;;;;;;;;;;4909710;29;20084;-82
2023/06/01 11:26:07;;;;;;;11.88;3.60;;;;;;;;;;4910652;29;20037;-83
2023/06/01 11:28:33;;;;;;;7.45;3.30;;;;;;;;;;4922517;29;20020;-83
2023/06/01 11:31:01;;;;;;;5.28;2.95;;;;;;;;;;4917246;29;20033;-82
2023/06/01 11:33:29;;;;;;;4.63;3.60;;;;;;;;;;4921651;29;20063;-82
2023/06/01 11:36:04;;;;;;;8.50;2.92;;;;;;;;;;4916872;29;20028;-81
2023/06/01 11:38:40;;;;;;;28.45;3.92;;;;;;;;;;4911724;29;20035;-82
2023/06/01 11:41:06;;;;;;;7.80;2.92;;;;;;;;;;4926061;29;20523;-85
2023/06/01 11:43:32;;;;;;;8.88;2.95;;;;;;;;;;4902196;29;20493;-84
2023/06/01 11:46:06;;;;;;;4.68;2.72;;;;;;;;;;4903932;29;20047;-84
2023/06/01 11:48:32;;;;;;;7.22;3.15;;;;;;;;;;4892806;29;20039;-84
2023/06/01 11:51:00;;;;;;;8.70;2.95;;;;;;;;;;4898677;29;20052;-85
2023/06/01 11:53:26;;;;;;;5.45;3.00;;;;;;;;;;4904009;29;20556;-84
2023/06/01 11:55:56;;;;;;;7.55;3.08;;;;;;;;;;4907217;29;20024;-81
2023/06/01 11:58:26;;;;;;;6.25;2.78;;;;;;;;;;4903536;29;20025;-85
2023/06/01 12:00:57;;;;;;;4.78;2.85;;;;;;;;;;4886848;29;20041;-83
2023/06/01 12:03:26;;;;;;;5.05;3.00;;;;;;;;;;4885892;29;20021;-82
2023/06/01 12:05:52;;;;;;;6.82;3.13;;;;;;;;;;4895388;29;20079;-81
2023/06/01 12:08:20;;;;;;;6.88;2.85;;;;;;;;;;4881296;29;20109;-82
2023/06/01 12:10:47;;;;;;;6.35;3.47;;;;;;;;;;4914197;29;20044;-84
2023/06/01 12:13:13;;;;;;;475.38;39.50;;;;;;;;;;4898904;29;20124;-84
2023/06/01 12:15:39;;;;;;;12.23;3.80;;;;;;;;;;4908453;29;20463;-84
2023/06/01 12:18:04;;;;;;;14.45;3.40;;;;;;;;;;4898650;29;20495;-86
2023/06/01 12:20:35;;;;;;;5.97;3.05;;;;;;;;;;4906125;29;20145;-87
2023/06/01 12:23:05;;;;;;;6.22;2.85;;;;;;;;;;4899170;29;20025;-77
2023/06/01 12:25:31;;;;;;;3.88;2.83;;;;;;;;;;4895948;29;20033;-77
2023/06/01 12:28:03;;;;;;;11.00;3.13;;;;;;;;;;4910914;29;20039;-76
2023/06/01 12:30:28;;;;;;;6.85;3.15;;;;;;;;;;5006023;23;20039;-79
2023/06/01 12:32:54;;;;;;;9.80;2.97;;;;;;;;;;4935103;29;20126;-80
2023/06/01 12:35:23;;;;;;;5.30;2.60;;;;;;;;;;4916308;29;20475;-81
2023/06/01 12:38:11;;;;;;;5.13;2.65;;;;;;;;;;4950754;29;20058;-80
2023/06/01 12:40:37;;;;;;;8.77;2.67;;;;;;;;;;4932186;29;20048;-81
2023/06/01 12:43:05;;;;;;;8.40;3.15;;;;;;;;;;4928083;29;20047;-81
2023/06/01 12:45:37;;;;;;;15.63;3.35;;;;;;;;;;4921407;29;20031;-81
2023/06/01 12:48:03;;;;;;;5.68;2.92;;;;;;;;;;4921616;29;20070;-81
2023/06/01 12:50:29;;;;;;;6.07;2.83;;;;;;;;;;4922651;29;20055;-80
2023/06/01 12:52:54;;;;;;;5.57;3.13;;;;;;;;;;4927999;29;20023;-80
2023/06/01 12:55:20;;;;;;;9.73;3.05;;;;;;;;;;4922265;29;20024;-79
2023/06/01 12:57:52;;;;;;;8.55;3.35;;;;;;;;;;4921781;29;20597;-81
2023/06/01 13:00:18;;;;;;;6.43;2.90;;;;;;;;;;4924408;29;20058;-80
2023/06/01 13:02:47;;;;;;;4.32;2.97;;;;;;;;;;4926531;29;20357;-81
2023/06/01 13:05:14;;;;;;;5.10;2.70;;;;;;;;;;4927033;29;20043;-80
2023/06/01 13:07:40;;;;;;;3.67;2.35;;;;;;;;;;4929008;29;20035;-80
2023/06/01 13:10:06;;;;;;;4.38;2.60;;;;;;;;;;4924305;29;20035;-78
2023/06/01 13:12:31;;;;;;;6.32;3.70;;;;;;;;;;4930362;29;20051;-78
2023/06/01 13:14:57;;;;;;;5.63;2.90;;;;;;;;;;4933454;29;21420;-80
2023/06/01 13:17:22;;;;;;;8.35;2.85;;;;;;;;;;4922971;29;20031;-81
2023/06/01 13:19:48;;;;;;;8.98;2.30;;;;;;;;;;4926379;29;20122;-79
2023/06/01 13:22:14;;;;;;;6.05;2.90;;;;;;;;;;4923452;29;20550;-81
2023/06/01 13:24:39;;;;;;;8.45;2.70;;;;;;;;;;4920401;29;20083;-81
2023/06/01 13:27:05;;;;;;;5.22;2.72;;;;;;;;;;4921778;29;20070;-82
2023/06/01 13:29:30;;;;;;;5.75;2.72;;;;;;;;;;4937151;29;20031;-81
2023/06/01 13:31:56;;;;;;;9.88;2.83;;;;;;;;;;4921530;29;20057;-80
2023/06/01 13:34:22;;;;;;;4.47;2.42;;;;;;;;;;4921842;29;20629;-81
2023/06/01 13:36:49;;;;;;;4.10;2.15;;;;;;;;;;4921396;29;20092;-82
2023/06/01 13:39:14;;;;;;;4.75;2.00;;;;;;;;;;4923794;29;20055;-80
2023/06/01 13:41:40;;;;;;;3.75;1.80;;;;;;;;;;4921761;29;20021;-82
2023/06/01 13:44:06;;;;;;;5.07;2.30;;;;;;;;;;4932596;29;20391;-81
2023/06/01 13:46:31;;;;;;;5.45;2.00;;;;;;;;;;4916608;29;20032;-83
2023/06/01 13:48:57;;;;;;;3.92;2.28;;;;;;;;;;4917207;29;20534;-82
2023/06/01 13:51:23;;;;;;;5.13;2.10;;;;;;;;;;4920033;29;20111;-83
2023/06/01 13:53:48;;;;;;;3.60;2.20;;;;;;;;;;4928270;29;20083;-81
2023/06/01 13:56:14;;;;;;;4.07;2.00;;;;;;;;;;4919625;29;20063;-81
2023/06/01 13:58:39;;;;;;;5.07;1.95;;;;;;;;;;4913016;29;20024;-83
2023/06/01 14:01:05;;;;;;;2.92;2.00;;;;;;;;;;4918553;29;20651;-82
2023/06/01 14:03:30;;;;;;;4.45;2.17;;;;;;;;;;4919390;29;20032;-83
2023/06/01 14:05:55;;;;;;;2.65;1.83;;;;;;;;;;4916072;29;20032;-81
2023/06/01 14:08:21;;;;;;;4.75;2.10;;;;;;;;;;4921451;29;20039;-82
2023/06/01 14:10:46;;;;;;;3.42;2.30;;;;;;;;;;4920116;29;20036;-79
2023/06/01 14:13:11;;;;;;;3.08;1.83;;;;;;;;;;4922266;29;20551;-79
2023/06/01 14:15:37;;;;;;;6.10;2.20;;;;;;;;;;4922374;29;20119;-79
2023/06/01 14:18:02;;;;;;;3.67;1.70;;;;;;;;;;4926478;29;20024;-80
2023/06/01 14:20:28;;;;;;;4.35;1.85;;;;;;;;;;4924130;29;20031;-80
2023/06/01 14:22:53;;;;;;;3.08;2.10;;;;;;;;;;4921213;29;20462;-81
2023/06/01 14:25:20;;;;;;;4.15;1.70;;;;;;;;;;4930699;29;20463;-79
2023/06/01 14:27:45;;;;;;;4.65;2.47;;;;;;;;;;4894783;29;20035;-80
2023/06/01 14:30:11;;;;;;;6.43;2.00;;;;;;;;;;4924014;29;20024;-80
2023/06/01 14:32:36;;;;;;;2.85;2.00;;;;;;;;;;4918356;29;20137;-80
2023/06/01 14:35:02;;;;;;;6.90;1.85;;;;;;;;;;4920802;29;20032;-81
2023/06/01 14:37:27;;;;;;;2.53;2.00;;;;;;;;;;4919274;29;20399;-80
2023/06/01 14:39:52;;;;;;;3.78;2.13;;;;;;;;;;4920020;29;20043;-79
2023/06/01 14:42:18;;;;;;;5.75;1.95;;;;;;;;;;4920861;29;20032;-78
2023/06/01 14:44:43;;;;;;;3.03;1.80;;;;;;;;;;4928231;29;20042;-80
2023/06/01 14:47:11;;;;;;;5.47;2.55;;;;;;;;;;4916277;29;20087;-87
2023/06/01 14:49:37;;;;;;;3.47;2.10;;;;;;;;;;4916678;29;20087;-83
2023/06/01 14:52:02;;;;;;;2.88;1.80;;;;;;;;;;4921896;29;20033;-83